Time;durP1;ratioP1;P1;durP2;ratioP2;P2;SDS_P1;SDS_P2;PMS_P1;PMS_P2;Temp;Humidity;BMP_temperature;BMP_pressure;BME280_temperature;BME280_humidity;BME280_pressure;Samples;Min_cycle;Max_cycle;Signal;HPM_P1;HPM_P2
2021/04/14 00:00:29;;;;;;;14.47;10.37;;;2.90;99.90;;;;;;5075987;28;20192;-63
2021/04/14 00:02:57;;;;;;;14.70;10.17;;;2.90;99.90;;;;;;5064468;28;20647;-64
2021/04/14 00:05:31;;;;;;;15.90;10.53;;;2.80;99.90;;;;;;5067380;28;20200;-64
2021/04/14 00:08:01;;;;;;;20.27;11.40;;;2.70;99.90;;;;;;5071817;28;20219;-63
2021/04/14 00:10:31;;;;;;;14.43;10.60;;;2.60;99.90;;;;;;5065930;28;20234;-63
2021/04/14 00:12:59;;;;;;;15.97;11.13;;;2.60;99.90;;;;;;5056631;28;20257;-64
2021/04/14 00:15:31;;;;;;;15.50;10.70;;;2.50;99.90;;;;;;5072231;28;20203;-62
2021/04/14 00:17:59;;;;;;;17.10;11.53;;;2.40;99.90;;;;;;5066191;28;20303;-63
2021/04/14 00:20:26;;;;;;;17.93;12.03;;;2.40;99.90;;;;;;5061121;28;20698;-63
2021/04/14 00:22:53;;;;;;;19.13;11.37;;;2.40;99.90;;;;;;5065789;28;20299;-65
2021/04/14 00:25:24;;;;;;;15.20;11.00;;;2.30;99.90;;;;;;5074493;28;20207;-63
2021/04/14 00:27:51;;;;;;;15.70;10.90;;;2.30;99.90;;;;;;5063212;28;20188;-65
2021/04/14 00:30:20;;;;;;;15.50;11.07;;;2.30;99.90;;;;;;5069083;28;20229;-65
2021/04/14 00:32:49;;;;;;;15.40;10.90;;;2.20;99.90;;;;;;5069224;28;20756;-65
2021/04/14 00:35:18;;;;;;;16.60;11.17;;;2.20;99.90;;;;;;5063804;28;20196;-65
2021/04/14 00:37:45;;;;;;;15.73;10.80;;;2.20;99.90;;;;;;5064505;28;20311;-65
2021/04/14 00:40:15;;;;;;;17.50;10.80;;;2.10;99.90;;;;;;5072378;28;20297;-65
2021/04/14 00:42:42;;;;;;;16.53;11.00;;;2.10;99.90;;;;;;5069296;28;20192;-65
2021/04/14 00:45:11;;;;;;;16.27;10.70;;;2.00;99.90;;;;;;5065747;28;20246;-65
2021/04/14 00:47:38;;;;;;;16.93;11.17;;;2.10;99.90;;;;;;5074920;28;20216;-65
2021/04/14 00:50:09;;;;;;;23.60;11.70;;;2.10;99.90;;;;;;5062795;28;20188;-65
2021/04/14 00:52:36;;;;;;;16.83;11.17;;;2.10;99.90;;;;;;5066123;28;20223;-65
2021/04/14 00:55:07;;;;;;;14.60;10.67;;;2.20;99.90;;;;;;5068895;28;20192;-65
2021/04/14 00:57:34;;;;;;;15.03;10.87;;;2.20;99.90;;;;;;5071383;28;20204;-65
2021/04/14 01:00:03;;;;;;;16.90;11.10;;;2.20;99.90;;;;;;5066826;28;20243;-65
2021/04/14 01:02:31;;;;;;;14.60;9.87;;;2.20;99.90;;;;;;5063338;28;20833;-66
2021/04/14 01:04:58;;;;;;;14.87;10.13;;;2.30;99.90;;;;;;5063134;28;20746;-65
2021/04/14 01:07:26;;;;;;;15.97;9.83;;;2.30;99.90;;;;;;5062470;28;20749;-66
2021/04/14 01:09:53;;;;;;;13.97;10.03;;;2.30;99.90;;;;;;5066027;28;20204;-65
2021/04/14 01:12:21;;;;;;;16.73;9.80;;;2.30;99.90;;;;;;5066644;28;20179;-65
2021/04/14 01:14:48;;;;;;;15.13;10.40;;;2.30;99.90;;;;;;5063417;28;20223;-63
2021/04/14 01:17:15;;;;;;;13.33;9.90;;;2.30;99.90;;;;;;5072173;28;20319;-65
2021/04/14 01:19:43;;;;;;;16.83;9.90;;;2.40;99.90;;;;;;5064483;28;20195;-65
2021/04/14 01:22:11;;;;;;;14.20;9.70;;;2.40;99.90;;;;;;5062386;28;20191;-65
2021/04/14 01:24:38;;;;;;;11.77;9.40;;;2.40;99.90;;;;;;5064833;28;20249;-65
2021/04/14 01:27:07;;;;;;;13.07;9.57;;;2.40;99.90;;;;;;5063625;28;20282;-65
2021/04/14 01:29:35;;;;;;;14.57;9.53;;;2.50;99.90;;;;;;5067391;28;20192;-65
2021/04/14 01:32:02;;;;;;;13.13;10.03;;;2.50;99.90;;;;;;5064598;28;20628;-64
2021/04/14 01:34:30;;;;;;;15.73;10.23;;;2.50;99.90;;;;;;5064899;28;20250;-65
2021/04/14 01:36:57;;;;;;;12.27;9.53;;;2.60;99.90;;;;;;5069567;28;20188;-65
2021/04/14 01:39:25;;;;;;;14.10;10.47;;;2.60;99.90;;;;;;5065565;28;20258;-64
2021/04/14 01:41:53;;;;;;;15.47;10.30;;;2.60;99.90;;;;;;5068640;28;20265;-64
2021/04/14 01:44:20;;;;;;;12.90;9.87;;;2.60;99.90;;;;;;5061631;28;20563;-65
2021/04/14 01:46:47;;;;;;;12.70;10.10;;;2.50;99.90;;;;;;5067408;28;20204;-65
2021/04/14 01:49:15;;;;;;;14.50;9.80;;;2.50;99.90;;;;;;5067030;28;20180;-65
2021/04/14 01:51:43;;;;;;;14.07;10.00;;;2.40;99.90;;;;;;5067770;28;20195;-65
2021/04/14 01:54:12;;;;;;;15.07;10.47;;;2.30;99.90;;;;;;5064890;28;20200;-64
2021/04/14 01:56:41;;;;;;;14.93;10.87;;;2.30;99.90;;;;;;5075530;28;20230;-65
2021/04/14 01:59:12;;;;;;;17.63;10.33;;;2.20;99.90;;;;;;5075341;28;20246;-65
2021/04/14 02:01:39;;;;;;;16.40;10.63;;;2.20;99.90;;;;;;5075355;28;20253;-65
2021/04/14 02:04:07;;;;;;;15.07;10.60;;;2.10;99.90;;;;;;5071177;28;20249;-64
2021/04/14 02:06:35;;;;;;;16.23;11.27;;;2.10;99.90;;;;;;5074975;28;20228;-64
2021/04/14 02:09:04;;;;;;;15.37;11.03;;;2.00;99.90;;;;;;5064399;28;20195;-64
2021/04/14 02:11:32;;;;;;;15.83;11.13;;;1.90;99.90;;;;;;5070396;28;20191;-65
2021/04/14 02:14:00;;;;;;;17.73;11.03;;;1.90;99.90;;;;;;5066351;28;20197;-64
2021/04/14 02:16:28;;;;;;;14.83;10.87;;;1.80;99.90;;;;;;5080898;28;20227;-64
2021/04/14 02:18:55;;;;;;;19.03;10.90;;;1.80;99.90;;;;;;5068633;28;20265;-64
2021/04/14 02:21:23;;;;;;;14.87;10.60;;;1.70;99.90;;;;;;5075163;28;20272;-65
2021/04/14 02:23:51;;;;;;;17.40;11.63;;;1.70;99.90;;;;;;5066156;28;20220;-64
2021/04/14 02:26:22;;;;;;;17.00;11.80;;;1.70;99.90;;;;;;5070792;28;20229;-64
2021/04/14 02:28:50;;;;;;;18.13;11.73;;;1.70;99.90;;;;;;5069455;28;20242;-64
2021/04/14 02:31:29;;;;;;;15.90;11.63;;;1.70;99.90;;;;;;5069158;28;20222;-65
2021/04/14 02:33:59;;;;;;;17.87;11.63;;;1.70;99.90;;;;;;5073464;28;20199;-64
2021/04/14 02:36:26;;;;;;;17.07;11.47;;;1.60;99.90;;;;;;5064361;28;20254;-64
2021/04/14 02:38:54;;;;;;;15.47;11.57;;;1.50;99.90;;;;;;5067555;28;20216;-64
2021/04/14 02:41:21;;;;;;;16.80;11.00;;;1.50;99.90;;;;;;5067313;28;20192;-64
2021/04/14 02:43:50;;;;;;;17.73;11.70;;;1.40;99.90;;;;;;5074076;28;20636;-63
2021/04/14 02:46:20;;;;;;;15.43;11.30;;;1.30;99.90;;;;;;5069694;28;20220;-64
2021/04/14 02:48:48;;;;;;;18.93;11.70;;;1.30;99.90;;;;;;5067791;28;20195;-64
2021/04/14 02:51:16;;;;;;;22.57;13.07;;;1.20;99.90;;;;;;5066986;28;20666;-64
2021/04/14 02:53:43;;;;;;;19.63;12.47;;;1.20;99.90;;;;;;5067383;28;20196;-64
2021/04/14 02:56:11;;;;;;;18.70;11.60;;;1.20;99.90;;;;;;5071329;28;20294;-64
2021/04/14 02:58:38;;;;;;;22.87;12.10;;;1.10;99.90;;;;;;5069820;28;20709;-65
2021/04/14 03:01:06;;;;;;;19.87;11.87;;;1.10;99.90;;;;;;5071049;28;20623;-64
2021/04/14 03:03:35;;;;;;;17.73;11.47;;;1.10;99.90;;;;;;5071499;28;20570;-64
2021/04/14 03:06:02;;;;;;;17.63;11.27;;;1.10;99.90;;;;;;5065626;28;20218;-64
2021/04/14 03:08:30;;;;;;;16.47;10.60;;;1.00;99.90;;;;;;5067145;28;20185;-64
2021/04/14 03:10:57;;;;;;;16.63;11.43;;;1.00;99.90;;;;;;5069276;28;20256;-63
2021/04/14 03:13:25;;;;;;;15.60;10.80;;;0.90;99.90;;;;;;5065578;28;20204;-63
2021/04/14 03:15:52;;;;;;;15.17;10.97;;;0.90;99.90;;;;;;5072751;28;20691;-62
2021/04/14 03:18:20;;;;;;;17.70;11.57;;;0.80;99.90;;;;;;5066893;28;20243;-62
2021/04/14 03:20:48;;;;;;;15.77;10.73;;;0.70;99.90;;;;;;5071162;28;20259;-62
2021/04/14 03:23:17;;;;;;;18.23;11.00;;;0.70;99.90;;;;;;5067401;28;20647;-63
2021/04/14 03:25:47;;;;;;;18.27;10.87;;;0.50;99.90;;;;;;5070971;28;20278;-62
2021/04/14 03:28:15;;;;;;;19.73;11.63;;;0.50;99.90;;;;;;5071327;28;20184;-62
2021/04/14 03:30:43;;;;;;;17.80;10.97;;;0.40;99.90;;;;;;5071427;28;20199;-62
2021/04/14 03:33:11;;;;;;;16.67;10.67;;;0.40;99.90;;;;;;5066789;28;20203;-62
2021/04/14 03:35:39;;;;;;;20.80;11.90;;;0.20;99.90;;;;;;5062904;28;20200;-62
2021/04/14 03:38:07;;;;;;;20.13;12.23;;;0.40;99.90;;;;;;5066671;28;20230;-62
2021/04/14 03:40:35;;;;;;;20.63;13.23;;;0.40;99.90;;;;;;5071885;28;20193;-62
2021/04/14 03:43:03;;;;;;;23.97;12.80;;;0.40;99.90;;;;;;5066094;28;20462;-62
2021/04/14 03:45:38;;;;;;;20.60;12.33;;;0.40;99.90;;;;;;5066628;28;20730;-63
2021/04/14 03:48:06;;;;;;;15.63;11.13;;;0.30;99.90;;;;;;5066327;28;20196;-63
2021/04/14 03:50:34;;;;;;;20.57;11.67;;;0.30;99.90;;;;;;5066434;28;20208;-63
2021/04/14 03:53:11;;;;;;;18.07;11.83;;;0.20;99.90;;;;;;5065585;28;20673;-62
2021/04/14 03:55:40;;;;;;;16.97;11.53;;;0.20;99.90;;;;;;5061861;28;20192;-63
2021/04/14 03:58:08;;;;;;;23.50;12.50;;;0.20;99.90;;;;;;5072942;28;20207;-62
2021/04/14 04:00:35;;;;;;;18.10;11.73;;;0.20;99.90;;;;;;5063778;28;20230;-62
2021/04/14 04:03:03;;;;;;;17.57;11.47;;;0.10;99.90;;;;;;5081475;28;20191;-62
2021/04/14 04:05:30;;;;;;;20.77;13.13;;;0.10;99.90;;;;;;5060781;28;20219;-60
2021/04/14 04:07:57;;;;;;;22.33;12.43;;;0.10;99.90;;;;;;5064554;28;20249;-62
2021/04/14 04:10:26;;;;;;;18.77;13.13;;;0.10;99.90;;;;;;5067121;28;20686;-62
2021/04/14 04:12:57;;;;;;;19.03;12.40;;;0.10;99.90;;;;;;5044322;28;20292;-62
2021/04/14 04:15:25;;;;;;;20.30;11.57;;;0.10;99.90;;;;;;5068211;28;20196;-62
2021/04/14 04:17:53;;;;;;;19.37;11.53;;;0.00;99.90;;;;;;5067777;28;20752;-62
2021/04/14 04:20:22;;;;;;;18.80;12.27;;;0.00;99.90;;;;;;5068597;28;20194;-62
2021/04/14 04:22:49;;;;;;;23.27;12.63;;;0.00;99.90;;;;;;5064989;28;20227;-61
2021/04/14 04:25:17;;;;;;;19.70;12.27;;;-0.10;99.90;;;;;;5066169;28;20291;-62
2021/04/14 04:27:45;;;;;;;23.20;12.10;;;-0.10;99.90;;;;;;5068567;28;20231;-63
2021/04/14 04:30:13;;;;;;;18.73;12.60;;;-0.20;99.90;;;;;;5064815;28;20718;-62
2021/04/14 04:32:41;;;;;;;26.80;12.70;;;-0.10;99.90;;;;;;5066679;28;20667;-62
2021/04/14 04:35:09;;;;;;;20.70;13.37;;;-0.10;99.90;;;;;;5066133;28;20629;-63
2021/04/14 04:37:36;;;;;;;18.43;11.53;;;0.00;99.90;;;;;;5066490;28;20731;-62
2021/04/14 04:40:05;;;;;;;22.47;12.77;;;0.10;99.90;;;;;;5062787;28;20234;-62
2021/04/14 04:42:34;;;;;;;19.80;12.77;;;0.10;99.90;;;;;;5067005;28;20257;-62
2021/04/14 04:45:03;;;;;;;18.87;12.90;;;0.10;99.90;;;;;;5064788;28;20250;-62
2021/04/14 04:47:30;;;;;;;23.13;12.60;;;0.20;99.90;;;;;;5069505;28;20225;-62
2021/04/14 04:50:00;;;;;;;19.90;12.47;;;0.10;99.90;;;;;;5064964;28;20208;-62
2021/04/14 04:52:27;;;;;;;18.43;11.53;;;0.10;99.90;;;;;;5066383;28;20286;-64
2021/04/14 04:54:55;;;;;;;16.20;11.17;;;0.10;99.90;;;;;;5065936;28;20188;-64
2021/04/14 04:57:22;;;;;;;27.87;12.73;;;0.00;99.90;;;;;;5066029;28;20241;-64
2021/04/14 04:59:50;;;;;;;18.17;12.27;;;0.00;99.90;;;;;;5069431;28;20212;-63
2021/04/14 05:02:18;;;;;;;20.37;12.73;;;-0.10;99.90;;;;;;5068317;28;20184;-63
2021/04/14 05:04:46;;;;;;;22.83;13.23;;;-0.10;99.90;;;;;;5065375;28;20218;-65
2021/04/14 05:07:13;;;;;;;19.20;12.37;;;-0.10;99.90;;;;;;5065694;28;20269;-65
2021/04/14 05:09:41;;;;;;;19.13;11.90;;;-0.10;99.90;;;;;;5072276;28;20195;-66
2021/04/14 05:12:09;;;;;;;20.80;12.70;;;-0.10;99.90;;;;;;5063529;28;20619;-65
2021/04/14 05:14:36;;;;;;;24.00;13.50;;;-0.10;99.90;;;;;;5066591;28;20273;-65
2021/04/14 05:17:03;;;;;;;20.10;13.20;;;-0.10;99.90;;;;;;5062338;28;20247;-65
2021/04/14 05:19:32;;;;;;;24.03;13.53;;;0.00;99.90;;;;;;5067808;28;20206;-65
2021/04/14 05:21:59;;;;;;;26.27;12.53;;;0.10;99.90;;;;;;5065657;28;20208;-65
2021/04/14 05:24:28;;;;;;;19.93;12.87;;;0.20;99.90;;;;;;5078420;28;20248;-65
2021/04/14 05:26:55;;;;;;;23.47;12.87;;;0.40;99.90;;;;;;5066916;28;20203;-66
2021/04/14 05:29:23;;;;;;;27.30;13.80;;;0.40;99.90;;;;;;5068174;28;20188;-65
2021/04/14 05:31:50;;;;;;;20.57;12.93;;;0.50;99.90;;;;;;5066744;28;20227;-65
2021/04/14 05:34:17;;;;;;;18.43;12.50;;;0.50;99.90;;;;;;5065884;28;20205;-65
2021/04/14 05:36:45;;;;;;;24.73;13.00;;;0.60;99.90;;;;;;5069440;28;20206;-64
2021/04/14 05:39:13;;;;;;;26.53;14.00;;;0.70;99.90;;;;;;5068951;28;20273;-65
2021/04/14 05:41:40;;;;;;;25.33;14.00;;;0.80;99.90;;;;;;5067914;28;20574;-65
2021/04/14 05:44:07;;;;;;;28.03;14.47;;;0.90;99.90;;;;;;5067631;28;20206;-65
2021/04/14 05:46:35;;;;;;;23.93;14.10;;;1.00;99.90;;;;;;5071859;28;20200;-65
2021/04/14 05:49:03;;;;;;;56.50;19.40;;;1.10;99.90;;;;;;5073470;28;20192;-65
2021/04/14 05:51:32;;;;;;;80.97;26.13;;;1.20;99.90;;;;;;5070755;28;20192;-65
2021/04/14 05:54:02;;;;;;;65.10;23.70;;;1.40;99.90;;;;;;5068734;28;20258;-65
2021/04/14 05:56:30;;;;;;;51.97;21.00;;;1.50;99.90;;;;;;5068468;28;20283;-65
2021/04/14 05:58:58;;;;;;;44.97;17.47;;;1.50;99.90;;;;;;5065034;28;20311;-65
2021/04/14 06:01:30;;;;;;;25.27;14.17;;;1.50;99.90;;;;;;5078525;28;20262;-65
2021/04/14 06:03:57;;;;;;;23.57;13.60;;;1.50;99.90;;;;;;5064555;28;20220;-64
2021/04/14 06:06:26;;;;;;;25.73;13.73;;;1.60;99.90;;;;;;5072663;28;20187;-65
2021/04/14 06:08:53;;;;;;;24.23;14.00;;;1.70;99.90;;;;;;5079572;28;20184;-65
2021/04/14 06:11:22;;;;;;;28.27;14.07;;;1.70;99.90;;;;;;5078204;28;20816;-65
2021/04/14 06:13:50;;;;;;;30.57;15.40;;;1.80;99.90;;;;;;5067065;28;20227;-65
2021/04/14 06:16:21;;;;;;;38.50;16.97;;;1.90;99.90;;;;;;5080052;28;20728;-65
2021/04/14 06:18:49;;;;;;;53.13;21.03;;;2.00;99.90;;;;;;5069226;28;20409;-65
2021/04/14 06:21:17;;;;;;;50.30;22.23;;;2.20;99.90;;;;;;5075028;28;20658;-65
2021/04/14 06:23:47;;;;;;;50.07;23.67;;;2.40;99.90;;;;;;5068585;28;20861;-65
2021/04/14 06:26:23;;;;;;;51.77;23.13;;;2.60;99.90;;;;;;5069290;28;20206;-65
2021/04/14 06:28:54;;;;;;;40.23;19.17;;;2.80;99.90;;;;;;5070570;28;20192;-65
2021/04/14 06:31:25;;;;;;;44.13;19.60;;;3.00;99.90;;;;;;5072507;28;20207;-65
2021/04/14 06:33:53;;;;;;;33.23;15.83;;;3.10;99.90;;;;;;5061036;28;20192;-65
2021/04/14 06:36:20;;;;;;;34.63;17.10;;;3.20;99.90;;;;;;5065322;28;20587;-65
2021/04/14 06:38:48;;;;;;;32.30;16.10;;;3.20;99.90;;;;;;5055660;28;20208;-65
2021/04/14 06:44:23;;;;;;;21.77;14.70;;;3.20;99.90;;;;;;5066246;28;20192;-65
2021/04/14 06:46:53;;;;;;;25.87;14.50;;;3.10;99.90;;;;;;5067969;28;20188;-65
2021/04/14 06:49:27;;;;;;;21.67;13.77;;;3.10;99.90;;;;;;5067337;28;20184;-65
2021/04/14 06:52:01;;;;;;;21.03;13.30;;;3.00;99.90;;;;;;5056943;28;20609;-65
2021/04/14 06:54:37;;;;;;;27.40;12.97;;;3.00;99.90;;;;;;5072118;28;20195;-65
2021/04/14 06:57:10;;;;;;;26.07;13.33;;;3.10;99.90;;;;;;5067891;28;20196;-65
2021/04/14 06:59:46;;;;;;;22.10;13.30;;;3.20;99.90;;;;;;5067246;28;20701;-65
2021/04/14 07:02:31;;;;;;;23.77;13.93;;;3.30;99.90;;;;;;5067271;28;20227;-65
2021/04/14 07:05:04;;;;;;;21.37;13.60;;;3.40;99.90;;;;;;5066229;28;20199;-65
2021/04/14 07:07:35;;;;;;;24.67;12.77;;;3.50;99.90;;;;;;5070349;28;20195;-65
2021/04/14 07:10:11;;;;;;;19.63;13.27;;;3.60;99.90;;;;;;5070015;28;20187;-64
2021/04/14 07:12:39;;;;;;;22.00;13.97;;;3.70;99.90;;;;;;5072612;28;20225;-65
2021/04/14 07:15:09;;;;;;;26.87;13.23;;;3.80;99.90;;;;;;5072200;28;20273;-64
2021/04/14 07:17:51;;;;;;;24.57;13.53;;;4.00;99.90;;;;;;5039488;28;858542;-65
2021/04/14 07:20:25;;;;;;;22.50;13.63;;;4.20;99.90;;;;;;5065775;28;20211;-65
2021/04/14 07:23:13;;;;;;;22.97;13.97;;;4.40;99.90;;;;;;5068089;28;20219;-65
2021/04/14 07:25:47;;;;;;;21.27;13.03;;;4.70;99.90;;;;;;5067529;28;20342;-66
2021/04/14 07:28:51;;;;;;;35.83;12.67;;;5.00;99.90;;;;;;5068868;28;20241;-65
2021/04/14 07:31:26;;;;;;;25.10;12.40;;;5.30;99.90;;;;;;5064753;28;20199;-65
2021/04/14 07:34:07;;;;;;;19.93;12.13;;;5.70;99.90;;;;;;5060663;28;20648;-65
2021/04/14 07:36:43;;;;;;;21.20;12.37;;;6.20;99.90;;;;;;5070042;28;20528;-65
2021/04/14 07:39:21;;;;;;;22.70;12.87;;;6.50;99.90;;;;;;5060319;28;20708;-65
2021/04/14 07:41:58;;;;;;;19.30;11.73;;;7.30;99.90;;;;;;5069174;28;20197;-65
2021/04/14 07:44:32;;;;;;;16.73;11.07;;;8.60;99.90;;;;;;5067004;28;20200;-66
2021/04/14 07:47:01;;;;;;;14.73;11.13;;;9.60;99.90;;;;;;5078686;28;20187;-66
2021/04/14 07:49:35;;;;;;;13.10;10.13;;;10.50;99.90;;;;;;5064293;28;20230;-66
2021/04/14 07:52:03;;;;;;;10.77;9.13;;;11.00;99.90;;;;;;5068843;28;20192;-66
2021/04/14 07:54:39;;;;;;;12.37;9.00;;;11.50;99.90;;;;;;5066969;28;20245;-66
2021/04/14 07:57:07;;;;;;;16.60;9.10;;;11.90;99.90;;;;;;5068417;28;20257;-66
2021/04/14 07:59:38;;;;;;;9.67;8.50;;;12.40;99.90;;;;;;5063238;28;20204;-64
2021/04/14 08:02:10;;;;;;;9.43;7.73;;;13.10;99.90;;;;;;5066014;28;20698;-64
2021/04/14 08:04:40;;;;;;;8.90;7.70;;;13.50;99.90;;;;;;5064964;28;20188;-66
2021/04/14 08:07:11;;;;;;;8.27;7.33;;;13.80;99.90;;;;;;5068302;28;20254;-66
2021/04/14 08:09:53;;;;;;;8.10;7.30;;;14.30;99.90;;;;;;5059278;28;20207;-66
2021/04/14 08:12:30;;;;;;;7.87;7.17;;;13.90;99.90;;;;;;5064492;28;20269;-66
2021/04/14 08:15:14;;;;;;;8.00;7.17;;;13.40;99.90;;;;;;5069294;28;20761;-66
2021/04/14 08:17:46;;;;;;;8.93;7.53;;;12.30;99.90;;;;;;5056134;28;20234;-66
2021/04/14 08:20:27;;;;;;;9.50;7.83;;;11.90;99.90;;;;;;5065859;28;20302;-66
2021/04/14 08:23:05;;;;;;;8.27;7.33;;;12.10;99.90;;;;;;5066506;28;20249;-66
2021/04/14 08:25:33;;;;;;;8.17;7.13;;;13.10;99.90;;;;;;5072373;28;20729;-66
2021/04/14 08:28:02;;;;;;;7.40;6.60;;;14.10;99.90;;;;;;5069971;28;20198;-64
2021/04/14 08:30:31;;;;;;;10.67;7.17;;;14.90;99.90;;;;;;5068670;28;20188;-64
2021/04/14 08:33:02;;;;;;;7.50;6.90;;;15.40;99.90;;;;;;5080159;28;20218;-64
2021/04/14 08:35:41;;;;;;;7.00;6.37;;;15.80;99.90;;;;;;5065057;28;20192;-64
2021/04/14 08:38:10;;;;;;;8.13;6.67;;;16.10;99.30;;;;;;5067652;28;20188;-64
2021/04/14 08:40:46;;;;;;;7.57;6.77;;;16.40;99.90;;;;;;5066570;28;20196;-67
2021/04/14 08:43:21;;;;;;;9.87;6.47;;;16.50;97.80;;;;;;5064254;28;20264;-64
2021/04/14 08:46:18;;;;;;;7.13;6.30;;;16.40;97.80;;;;;;5068939;28;20188;-65
2021/04/14 08:48:52;;;;;;;7.60;6.27;;;16.70;98.50;;;;;;5070384;28;20188;-65
2021/04/14 08:51:20;;;;;;;9.37;6.60;;;17.40;98.40;;;;;;5060958;28;20200;-65
2021/04/14 08:53:48;;;;;;;7.63;5.57;;;17.80;96.90;;;;;;5057824;28;20705;-65
2021/04/14 08:56:16;;;;;;;9.93;5.87;;;18.00;95.80;;;;;;5066269;28;20286;-65
2021/04/14 08:58:43;;;;;;;8.80;7.00;;;18.10;95.40;;;;;;5064923;28;20267;-65
2021/04/14 09:01:16;;;;;;;7.03;6.33;;;18.10;99.40;;;;;;5065116;28;20202;-65
2021/04/14 09:03:48;;;;;;;7.87;6.37;;;19.00;93.30;;;;;;5062002;28;20403;-65
2021/04/14 09:06:19;;;;;;;7.43;6.73;;;19.30;92.50;;;;;;5065876;28;20199;-65
2021/04/14 09:08:50;;;;;;;8.10;6.90;;;18.90;93.10;;;;;;5067947;28;20866;-65
2021/04/14 09:11:23;;;;;;;9.53;6.73;;;18.90;91.00;;;;;;5066120;28;20192;-65
2021/04/14 09:14:02;;;;;;;8.10;7.13;;;18.70;92.00;;;;;;5068657;28;20488;-65
2021/04/14 09:16:36;;;;;;;6.90;6.20;;;18.90;91.60;;;;;;5087679;28;20823;-65
2021/04/14 09:19:21;;;;;;;12.33;7.43;;;19.20;91.80;;;;;;5088419;28;20237;-65
2021/04/14 09:21:53;;;;;;;8.70;7.40;;;19.60;91.40;;;;;;5083777;28;20290;-65
2021/04/14 09:24:30;;;;;;;10.57;7.20;;;19.70;88.00;;;;;;5066839;28;20250;-65
2021/04/14 09:26:59;;;;;;;7.23;6.53;;;19.60;91.00;;;;;;5075996;28;20207;-65
2021/04/14 09:29:50;;;;;;;7.70;7.00;;;19.90;90.50;;;;;;5064341;28;20199;-65
2021/04/14 09:32:35;;;;;;;9.03;6.97;;;20.30;90.40;;;;;;5060699;28;20296;-65
2021/04/14 09:35:15;;;;;;;8.10;6.70;;;20.30;89.40;;;;;;5067948;28;20712;-65
2021/04/14 09:37:45;;;;;;;7.55;6.57;;;20.70;87.00;;;;;;5068115;28;20198;-65
2021/04/14 09:40:25;;;;;;;8.57;6.55;;;21.40;87.40;;;;;;5061923;28;20278;-65
2021/04/14 09:42:52;;;;;;;7.80;6.55;;;21.40;84.30;;;;;;5064492;28;20221;-65
2021/04/14 09:45:37;;;;;;;6.57;6.07;;;20.20;82.50;;;;;;5070864;28;20211;-65
2021/04/14 09:48:17;;;;;;;8.53;7.13;;;19.60;85.10;;;;;;5055980;28;20555;-65
2021/04/14 09:50:47;;;;;;;8.00;6.70;;;20.50;83.20;;;;;;5060644;28;20249;-65
2021/04/14 09:53:28;;;;;;;10.13;6.80;;;20.90;80.40;;;;;;5063241;28;20195;-64
2021/04/14 09:55:59;;;;;;;10.50;6.80;;;20.10;80.70;;;;;;5058613;28;20654;-65
2021/04/14 09:58:32;;;;;;;7.47;6.77;;;18.90;82.10;;;;;;5055715;28;20223;-65
2021/04/14 10:01:12;;;;;;;9.77;7.00;;;19.20;85.20;;;;;;5062527;28;20189;-64
2021/04/14 10:03:44;;;;;;;7.40;6.70;;;19.70;81.30;;;;;;5052799;28;20639;-65
2021/04/14 10:06:15;;;;;;;6.18;5.68;;;20.60;81.70;;;;;;5057486;28;20197;-65
2021/04/14 10:08:44;;;;;;;6.65;5.68;;;21.10;77.90;;;;;;5061242;28;20199;-65
2021/04/14 10:11:24;;;;;;;7.00;6.30;;;21.60;78.20;;;;;;5063203;28;20873;-65
2021/04/14 10:13:51;;;;;;;7.63;6.95;;;21.60;73.50;;;;;;5060577;28;20786;-65
2021/04/14 10:16:24;;;;;;;6.90;6.10;;;21.50;76.00;;;;;;5061627;28;20768;-65
2021/04/14 10:19:02;;;;;;;7.72;6.32;;;20.90;76.90;;;;;;5061312;28;20205;-65
2021/04/14 10:21:31;;;;;;;7.68;6.97;;;21.00;77.60;;;;;;5068780;28;20219;-65
2021/04/14 10:24:02;;;;;;;9.30;6.43;;;21.60;74.70;;;;;;5064939;28;20218;-64
2021/04/14 10:26:34;;;;;;;8.75;6.43;;;20.50;73.40;;;;;;5066903;28;20207;-65
2021/04/14 10:29:05;;;;;;;6.45;5.88;;;19.80;76.30;;;;;;5079150;28;20249;-65
2021/04/14 10:31:35;;;;;;;7.43;6.23;;;19.70;73.30;;;;;;5065587;28;20195;-64
2021/04/14 10:34:09;;;;;;;6.63;5.83;;;19.60;71.80;;;;;;5060776;28;20200;-65
2021/04/14 10:36:40;;;;;;;6.13;5.53;;;19.80;72.80;;;;;;5067249;28;20278;-65
2021/04/14 10:39:15;;;;;;;6.43;5.73;;;19.20;74.20;;;;;;5082294;28;20276;-64
2021/04/14 10:41:44;;;;;;;12.23;5.90;;;19.20;72.30;;;;;;5064845;28;20210;-65
2021/04/14 10:44:17;;;;;;;8.23;7.40;;;18.10;73.60;;;;;;5063385;28;20228;-64
2021/04/14 10:46:46;;;;;;;8.00;6.90;;;17.60;74.00;;;;;;5063796;28;20199;-64
2021/04/14 10:49:22;;;;;;;9.60;7.50;;;16.60;73.20;;;;;;5068738;28;20180;-64
2021/04/14 10:51:53;;;;;;;8.57;6.80;;;16.70;78.80;;;;;;5067295;28;20614;-64
2021/04/14 10:54:27;;;;;;;11.40;7.83;;;17.00;77.00;;;;;;5069363;28;20663;-64
2021/04/14 10:57:01;;;;;;;8.87;7.40;;;18.30;77.50;;;;;;5069904;28;20439;-64
2021/04/14 10:59:29;;;;;;;8.70;7.20;;;18.60;72.60;;;;;;5072659;28;20245;-64
2021/04/14 11:01:57;;;;;;;8.97;7.43;;;19.40;72.90;;;;;;5069099;28;20256;-64
2021/04/14 11:04:36;;;;;;;7.93;7.03;;;20.20;78.60;;;;;;5065814;28;20211;-64
2021/04/14 11:07:08;;;;;;;7.67;6.87;;;20.30;71.60;;;;;;5067508;28;20187;-64
2021/04/14 11:09:38;;;;;;;9.73;7.17;;;19.80;73.00;;;;;;5069228;28;20889;-64
2021/04/14 11:12:09;;;;;;;8.20;7.33;;;19.50;76.70;;;;;;5072841;28;20191;-64
2021/04/14 11:14:39;;;;;;;10.80;7.70;;;18.70;70.50;;;;;;5066952;28;20204;-64
2021/04/14 11:17:08;;;;;;;9.20;8.00;;;17.30;73.20;;;;;;5068230;28;20228;-64
2021/04/14 11:19:40;;;;;;;11.67;8.00;;;16.30;77.80;;;;;;5059663;28;20303;-66
2021/04/14 11:22:11;;;;;;;11.07;8.23;;;15.50;81.70;;;;;;5069908;28;20535;-66
2021/04/14 11:24:44;;;;;;;11.43;7.77;;;15.10;79.70;;;;;;5065215;28;20199;-66
2021/04/14 11:27:17;;;;;;;9.43;8.53;;;14.70;81.40;;;;;;5070302;28;20538;-66
2021/04/14 11:29:45;;;;;;;10.80;8.60;;;14.80;83.50;;;;;;5061148;28;20357;-66
2021/04/14 11:32:15;;;;;;;11.43;8.17;;;14.90;84.30;;;;;;5069194;28;20223;-66
2021/04/14 11:34:55;;;;;;;12.20;8.70;;;15.00;82.00;;;;;;5064013;28;20690;-66
2021/04/14 11:37:30;;;;;;;13.23;8.97;;;14.90;81.60;;;;;;5063422;28;20286;-66
2021/04/14 11:39:59;;;;;;;14.40;9.20;;;14.70;81.90;;;;;;5070978;28;20266;-66
2021/04/14 11:42:45;;;;;;;14.03;9.77;;;14.60;85.30;;;;;;5068933;28;20250;-66
2021/04/14 11:45:24;;;;;;;13.83;10.43;;;14.40;83.00;;;;;;5059891;28;20191;-65
2021/04/14 11:47:52;;;;;;;13.70;10.37;;;13.80;81.30;;;;;;5064566;28;20203;-66
2021/04/14 11:50:23;;;;;;;15.40;10.97;;;13.80;84.80;;;;;;5063773;28;20747;-65
2021/04/14 11:52:54;;;;;;;13.73;10.13;;;13.80;87.60;;;;;;5069612;28;20195;-66
2021/04/14 11:55:29;;;;;;;16.53;11.03;;;13.80;86.10;;;;;;5068008;28;20228;-65
2021/04/14 11:58:01;;;;;;;15.90;10.60;;;13.80;87.10;;;;;;5070247;28;20211;-65
2021/04/14 12:00:31;;;;;;;15.77;10.90;;;14.00;85.90;;;;;;5064976;28;20269;-65
2021/04/14 12:03:02;;;;;;;13.53;10.33;;;14.20;84.80;;;;;;5066968;28;20249;-65
2021/04/14 12:05:30;;;;;;;14.33;10.13;;;14.40;80.50;;;;;;5066246;28;20196;-65
2021/04/14 12:07:58;;;;;;;15.60;10.00;;;14.70;85.10;;;;;;5065711;28;20188;-65
2021/04/14 12:10:27;;;;;;;13.13;9.47;;;15.40;80.30;;;;;;5061796;28;20291;-65
2021/04/14 12:12:55;;;;;;;14.30;9.30;;;15.20;75.80;;;;;;5061839;28;20195;-65
2021/04/14 12:15:22;;;;;;;14.20;10.10;;;14.90;77.40;;;;;;5084135;28;20191;-64
2021/04/14 12:17:49;;;;;;;11.20;10.00;;;14.80;78.10;;;;;;5084623;28;20281;-65
2021/04/14 12:20:17;;;;;;;12.77;9.87;;;15.10;84.80;;;;;;5068204;28;20269;-65
2021/04/14 12:22:45;;;;;;;10.33;9.27;;;15.40;83.00;;;;;;5068059;28;20251;-65
2021/04/14 12:25:14;;;;;;;13.00;10.30;;;15.70;83.90;;;;;;5067721;28;20202;-65
2021/04/14 12:27:42;;;;;;;15.93;10.20;;;15.60;84.30;;;;;;5078646;28;20229;-65
2021/04/14 12:30:10;;;;;;;12.83;9.80;;;15.40;85.50;;;;;;5074883;28;20257;-65
2021/04/14 12:32:48;;;;;;;12.77;9.83;;;15.00;85.80;;;;;;5067462;28;20234;-65
2021/04/14 12:35:16;;;;;;;13.13;9.80;;;14.70;85.60;;;;;;5072695;28;20256;-65
2021/04/14 12:37:43;;;;;;;12.97;10.23;;;14.60;88.00;;;;;;5066650;28;20184;-65
2021/04/14 12:40:14;;;;;;;15.43;10.20;;;14.70;89.50;;;;;;5069367;28;20269;-65
2021/04/14 12:42:57;;;;;;;11.83;9.67;;;14.90;89.00;;;;;;5088487;28;20282;-65
2021/04/14 12:45:38;;;;;;;12.27;9.90;;;14.40;86.70;;;;;;5070345;28;20269;-65
2021/04/14 12:48:09;;;;;;;12.77;10.60;;;13.80;89.70;;;;;;5081767;28;20245;-65
2021/04/14 12:51:20;;;;;;;13.97;10.83;;;13.60;90.70;;;;;;5088293;28;20555;-65
2021/04/14 12:53:51;;;;;;;14.83;11.30;;;13.10;91.10;;;;;;5061624;28;20208;-65
2021/04/14 12:56:31;;;;;;;15.10;10.87;;;13.00;91.00;;;;;;5067772;28;20195;-65
2021/04/14 12:59:05;;;;;;;13.87;10.53;;;12.80;91.20;;;;;;5067347;28;20190;-65